createdAt,value
2018-03-11T00:00:42.104Z,980.94
2018-03-11T00:01:42.230Z,980.96
2018-03-11T00:02:42.179Z,980.94
2018-03-11T00:03:42.214Z,980.94
2018-03-11T00:04:42.249Z,980.94
2018-03-11T00:05:42.285Z,980.96
2018-03-11T00:06:42.324Z,980.91
2018-03-11T00:07:42.357Z,980.92
2018-03-11T00:08:42.395Z,980.96
2018-03-11T00:09:42.430Z,980.97
2018-03-11T00:10:42.465Z,980.97
2018-03-11T00:11:42.506Z,980.93
2018-03-11T00:12:42.541Z,980.93
2018-03-11T00:13:42.575Z,980.92
2018-03-11T00:14:42.634Z,980.93
2018-03-11T00:15:42.647Z,980.95
2018-03-11T00:16:42.688Z,980.89
2018-03-11T00:17:42.718Z,980.95
2018-03-11T00:18:42.756Z,980.93
2018-03-11T00:19:42.797Z,980.92
2018-03-11T00:20:42.834Z,980.92
2018-03-11T00:21:42.861Z,980.87
2018-03-11T00:22:42.899Z,980.89
2018-03-11T00:23:42.938Z,980.85
2018-03-11T00:24:42.973Z,980.87
2018-03-11T00:25:43.010Z,980.83
2018-03-11T00:26:43.049Z,980.80
2018-03-11T00:27:43.079Z,980.82
2018-03-11T00:28:43.116Z,980.83
2018-03-11T00:29:43.152Z,980.85
2018-03-11T00:30:43.188Z,980.83
2018-03-11T00:31:43.222Z,980.85
2018-03-11T00:32:43.328Z,980.89
2018-03-11T00:33:43.298Z,980.88
2018-03-11T00:34:43.356Z,980.88
2018-03-11T00:35:43.370Z,980.87
2018-03-11T00:36:43.402Z,980.86
2018-03-11T00:37:43.439Z,980.85
2018-03-11T00:38:43.479Z,980.89
2018-03-11T00:39:43.521Z,980.86
2018-03-11T00:40:43.552Z,980.87
2018-03-11T00:41:43.585Z,980.88
2018-03-11T00:42:43.620Z,980.88
2018-03-11T00:43:43.660Z,980.87
2018-03-11T00:44:43.692Z,980.87
2018-03-11T00:45:43.730Z,980.88
2018-03-11T00:46:43.765Z,980.89
2018-03-11T00:47:43.801Z,980.89
2018-03-11T00:48:43.840Z,980.87
2018-03-11T00:49:43.874Z,980.86
2018-03-11T00:50:43.911Z,980.86
2018-03-11T00:51:43.950Z,980.85
2018-03-11T00:52:43.984Z,980.84
2018-03-11T00:53:44.022Z,980.82
2018-03-11T00:54:44.058Z,980.80
2018-03-11T00:55:44.107Z,980.79
2018-03-11T00:56:44.132Z,980.82
2018-03-11T00:57:44.162Z,980.77
2018-03-11T00:58:44.287Z,980.75
2018-03-11T00:59:44.234Z,980.76
2018-03-11T01:00:44.272Z,980.77
2018-03-11T01:01:44.308Z,980.76
2018-03-11T01:02:44.342Z,980.78
2018-03-11T01:03:44.381Z,980.76
2018-03-11T01:04:44.415Z,980.77
2018-03-11T01:05:44.566Z,980.71
2018-03-11T01:06:44.487Z,980.78
2018-03-11T01:07:44.523Z,980.71
2018-03-11T01:08:44.563Z,980.75
2018-03-11T01:09:44.595Z,980.71
2018-03-11T01:10:44.633Z,980.74
2018-03-11T01:11:44.668Z,980.69
2018-03-11T01:12:44.705Z,980.74
2018-03-11T01:13:44.744Z,980.72
2018-03-11T01:14:44.776Z,980.73
2018-03-11T01:15:44.829Z,980.72
2018-03-11T01:16:44.854Z,980.72
2018-03-11T01:17:44.885Z,980.73
2018-03-11T01:18:44.924Z,980.74
2018-03-11T01:19:44.956Z,980.70
2018-03-11T01:20:44.996Z,980.73
2018-03-11T01:21:45.029Z,980.67
2018-03-11T01:22:45.067Z,980.68
2018-03-11T01:23:45.111Z,980.68
2018-03-11T01:24:45.138Z,980.68
2018-03-11T01:25:45.175Z,980.66
2018-03-11T01:26:45.210Z,980.65
2018-03-11T01:27:45.246Z,980.63
2018-03-11T01:28:45.287Z,980.67
2018-03-11T01:29:45.329Z,980.64
2018-03-11T01:30:45.357Z,980.66
2018-03-11T01:31:45.391Z,980.64
2018-03-11T01:32:45.440Z,980.62
2018-03-11T01:33:45.461Z,980.59
2018-03-11T01:34:45.497Z,980.61
2018-03-11T01:35:45.536Z,980.57
2018-03-11T01:36:45.573Z,980.57
2018-03-11T01:37:45.606Z,980.50
2018-03-11T01:38:45.641Z,980.51
2018-03-11T01:39:45.676Z,980.51
2018-03-11T01:40:45.715Z,980.46
2018-03-11T01:41:45.749Z,980.47
2018-03-11T01:42:45.787Z,980.46
2018-03-11T01:43:45.822Z,980.48
2018-03-11T01:44:45.898Z,980.42
2018-03-11T01:45:45.910Z,980.45
2018-03-11T01:46:45.930Z,980.40
2018-03-11T01:47:45.969Z,980.37
2018-03-11T01:48:46.001Z,980.42
2018-03-11T01:49:46.038Z,980.41
2018-03-11T01:50:46.074Z,980.39
2018-03-11T01:51:46.109Z,980.39
2018-03-11T01:52:46.143Z,980.43
2018-03-11T01:53:46.183Z,980.44
2018-03-11T01:54:46.220Z,980.44
2018-03-11T01:55:46.251Z,980.40
2018-03-11T01:56:46.290Z,980.44
2018-03-11T01:57:46.323Z,980.45
2018-03-11T01:58:46.373Z,980.43
2018-03-11T01:59:46.396Z,980.38
2018-03-11T02:00:46.434Z,980.34
2018-03-11T02:01:46.474Z,980.37
2018-03-11T02:02:46.505Z,980.35
2018-03-11T02:03:46.541Z,980.36
2018-03-11T02:04:46.580Z,980.33
2018-03-11T02:05:46.614Z,980.29
2018-03-11T02:06:46.760Z,980.28
2018-03-11T02:07:46.683Z,980.27
2018-03-11T02:08:46.723Z,980.23
2018-03-11T02:09:46.807Z,980.26
2018-03-11T02:10:46.792Z,980.21
2018-03-11T02:11:46.831Z,980.23
2018-03-11T02:12:46.866Z,980.22
2018-03-11T02:13:46.902Z,980.18
2018-03-11T02:14:46.936Z,980.15
2018-03-11T02:15:46.974Z,980.14
2018-03-11T02:16:47.115Z,980.11
2018-03-11T02:17:47.047Z,980.10
2018-03-11T02:18:47.081Z,980.09
2018-03-11T02:19:47.118Z,980.10
2018-03-11T02:20:47.154Z,980.07
2018-03-11T02:21:47.189Z,980.06
2018-03-11T02:22:47.223Z,980.04
2018-03-11T02:23:47.328Z,980.00
2018-03-11T02:24:47.298Z,979.96
2018-03-11T02:25:47.333Z,979.94
2018-03-11T02:26:47.367Z,979.94
2018-03-11T02:27:47.406Z,979.97
2018-03-11T02:28:47.445Z,979.94
2018-03-11T02:29:47.482Z,979.94
2018-03-11T02:30:47.570Z,979.94
2018-03-11T02:31:47.549Z,979.89
2018-03-11T02:32:47.584Z,979.85
2018-03-11T02:33:47.625Z,979.83
2018-03-11T02:34:47.670Z,979.85
2018-03-11T02:35:47.696Z,979.84
2018-03-11T02:36:47.730Z,979.80
2018-03-11T02:37:47.765Z,979.78
2018-03-11T02:38:47.800Z,979.81
2018-03-11T02:39:47.839Z,979.75
2018-03-11T02:40:47.875Z,979.78
2018-03-11T02:41:47.909Z,979.77
2018-03-11T02:42:48.000Z,979.75
2018-03-11T02:43:47.982Z,979.77
2018-03-11T02:44:48.017Z,979.77
2018-03-11T02:45:48.052Z,979.73
2018-03-11T02:46:48.091Z,979.72
2018-03-11T02:47:48.128Z,979.70
2018-03-11T02:48:48.161Z,979.69
2018-03-11T02:49:48.258Z,979.71
2018-03-11T02:50:48.236Z,979.72
2018-03-11T02:51:48.270Z,979.70
2018-03-11T02:52:48.307Z,979.65
2018-03-11T02:53:48.340Z,979.67
2018-03-11T02:54:48.378Z,979.65
2018-03-11T02:55:48.414Z,979.65
2018-03-11T02:56:48.450Z,979.64
2018-03-11T02:57:48.489Z,979.64
2018-03-11T02:58:48.521Z,979.61
2018-03-11T02:59:48.562Z,979.58
2018-03-11T03:00:48.592Z,979.53
2018-03-11T03:01:48.628Z,979.52
2018-03-11T03:02:48.668Z,979.48
2018-03-11T03:03:48.701Z,979.43
2018-03-11T03:04:48.739Z,979.41
2018-03-11T03:05:48.777Z,979.43
2018-03-11T03:06:48.808Z,979.42
2018-03-11T03:07:48.849Z,979.41
2018-03-11T03:08:48.884Z,979.40
2018-03-11T03:09:48.921Z,979.37
2018-03-11T03:10:48.952Z,979.37
2018-03-11T03:11:48.990Z,979.40
2018-03-11T03:12:49.028Z,979.37
2018-03-11T03:13:49.061Z,979.34
2018-03-11T03:14:49.109Z,979.33
2018-03-11T03:15:49.134Z,979.32
2018-03-11T03:16:49.171Z,979.30
2018-03-11T03:17:49.218Z,979.30
2018-03-11T03:18:49.254Z,979.30
2018-03-11T03:19:49.292Z,979.29
2018-03-11T03:20:49.316Z,979.29
2018-03-11T03:21:49.351Z,979.29
2018-03-11T03:22:49.384Z,979.29
2018-03-11T03:23:49.429Z,979.25
2018-03-11T03:24:49.461Z,979.25
2018-03-11T03:25:49.490Z,979.27
2018-03-11T03:26:49.526Z,979.25
2018-03-11T03:27:49.561Z,979.24
2018-03-11T03:28:49.603Z,979.22
2018-03-11T03:29:49.723Z,979.27
2018-03-11T03:30:49.713Z,979.21
2018-03-11T03:31:49.705Z,979.24
2018-03-11T03:32:49.744Z,979.16
2018-03-11T03:33:49.776Z,979.12
2018-03-11T03:34:49.813Z,979.13
2018-03-11T03:35:49.848Z,979.11
2018-03-11T03:36:49.886Z,979.11
2018-03-11T03:37:49.921Z,979.07
2018-03-11T03:38:49.955Z,979.09
2018-03-11T03:39:49.994Z,979.04
2018-03-11T03:40:50.025Z,979.05
2018-03-11T03:41:50.060Z,979.00
2018-03-11T03:42:50.100Z,979.03
2018-03-11T03:43:50.150Z,979.03
2018-03-11T03:44:50.175Z,978.99
2018-03-11T03:45:50.204Z,978.97
2018-03-11T03:46:50.289Z,978.93
2018-03-11T03:47:50.278Z,978.91
2018-03-11T03:48:50.310Z,978.91
2018-03-11T03:49:50.345Z,978.84
2018-03-11T03:50:50.378Z,978.86
2018-03-11T03:51:50.419Z,978.82
2018-03-11T03:52:50.458Z,978.79
2018-03-11T03:53:50.487Z,978.78
2018-03-11T03:54:50.527Z,978.78
2018-03-11T03:55:50.558Z,978.77
2018-03-11T03:56:50.596Z,978.81
2018-03-11T03:57:50.629Z,978.82
2018-03-11T03:58:50.665Z,978.85
2018-03-11T03:59:50.698Z,978.83
2018-03-11T04:00:50.779Z,978.78
2018-03-11T04:01:50.768Z,978.78
2018-03-11T04:02:50.807Z,978.70
2018-03-11T04:03:50.841Z,978.70
2018-03-11T04:04:50.877Z,978.73
2018-03-11T04:05:50.912Z,978.73
2018-03-11T04:06:50.956Z,978.70
2018-03-11T04:07:50.983Z,978.77
2018-03-11T04:08:51.020Z,978.73
2018-03-11T04:09:51.058Z,978.74
2018-03-11T04:10:51.091Z,978.68
2018-03-11T04:11:51.124Z,978.64
2018-03-11T04:12:51.161Z,978.64
2018-03-11T04:13:51.199Z,978.66
2018-03-11T04:14:51.231Z,978.68
2018-03-11T04:15:51.268Z,978.77
2018-03-11T04:16:51.304Z,978.82
2018-03-11T04:17:51.339Z,978.84
2018-03-11T04:18:51.381Z,978.84
2018-03-11T04:19:51.500Z,978.86
2018-03-11T04:20:51.449Z,978.84
2018-03-11T04:21:51.478Z,978.79
2018-03-11T04:22:51.516Z,978.72
2018-03-11T04:23:51.549Z,978.73
2018-03-11T04:24:51.585Z,978.72
2018-03-11T04:25:51.638Z,978.67
2018-03-11T04:26:51.763Z,978.66
2018-03-11T04:27:51.693Z,978.65
2018-03-11T04:28:51.730Z,978.68
2018-03-11T04:29:51.763Z,978.69
2018-03-11T04:30:51.801Z,978.69
2018-03-11T04:31:51.832Z,978.70
2018-03-11T04:32:51.870Z,978.70
2018-03-11T04:33:51.905Z,978.71
2018-03-11T04:34:51.941Z,978.73
2018-03-11T04:35:51.974Z,978.70
2018-03-11T04:36:52.021Z,978.68
2018-03-11T04:37:52.046Z,978.73
2018-03-11T04:38:52.083Z,978.66
2018-03-11T04:39:52.114Z,978.71
2018-03-11T04:40:52.151Z,978.70
2018-03-11T04:41:52.185Z,978.71
2018-03-11T04:42:52.224Z,978.68
2018-03-11T04:43:52.259Z,978.70
2018-03-11T04:44:52.294Z,978.69
2018-03-11T04:45:52.327Z,978.67
2018-03-11T04:46:52.363Z,978.67
2018-03-11T04:47:52.397Z,978.67
2018-03-11T04:48:52.435Z,978.67
2018-03-11T04:49:52.467Z,978.68
2018-03-11T04:50:52.553Z,978.61
2018-03-11T04:51:52.538Z,978.62
2018-03-11T04:52:52.573Z,978.59
2018-03-11T04:53:52.607Z,978.56
2018-03-11T04:54:52.661Z,978.52
2018-03-11T04:55:52.686Z,978.52
2018-03-11T04:56:52.716Z,978.53
2018-03-11T04:57:52.748Z,978.56
2018-03-11T04:58:52.784Z,978.60
2018-03-11T04:59:52.817Z,978.63
2018-03-11T05:00:52.854Z,978.67
2018-03-11T05:01:52.887Z,978.70
2018-03-11T05:02:52.923Z,978.71
2018-03-11T05:03:52.957Z,978.72
2018-03-11T05:04:53.014Z,978.75
2018-03-11T05:05:53.028Z,978.74
2018-03-11T05:06:53.064Z,978.79
2018-03-11T05:07:53.103Z,978.78
2018-03-11T05:08:53.135Z,978.78
2018-03-11T05:09:53.179Z,978.78
2018-03-11T05:10:53.201Z,978.78
2018-03-11T05:11:53.282Z,978.77
2018-03-11T05:12:53.277Z,978.77
2018-03-11T05:13:53.306Z,978.77
2018-03-11T05:14:53.340Z,978.77
2018-03-11T05:15:53.405Z,978.75
2018-03-11T05:16:53.411Z,978.74
2018-03-11T05:17:53.461Z,978.77
2018-03-11T05:18:53.482Z,978.80
2018-03-11T05:19:53.517Z,978.77
2018-03-11T05:20:53.558Z,978.78
2018-03-11T05:21:53.589Z,978.77
2018-03-11T05:22:53.620Z,978.74
2018-03-11T05:23:53.659Z,978.66
2018-03-11T05:24:53.694Z,978.71
2018-03-11T05:25:53.729Z,978.70
2018-03-11T05:26:53.762Z,978.67
2018-03-11T05:27:53.803Z,978.66
2018-03-11T05:28:53.830Z,978.65
2018-03-11T05:29:53.884Z,978.60
2018-03-11T05:30:53.991Z,978.60
2018-03-11T05:31:53.938Z,978.55
2018-03-11T05:32:53.970Z,978.54
2018-03-11T05:33:54.003Z,978.54
2018-03-11T05:34:54.040Z,978.53
2018-03-11T05:35:54.073Z,978.50
2018-03-11T05:36:54.109Z,978.50
2018-03-11T05:37:54.141Z,978.49
2018-03-11T05:38:54.188Z,978.48
2018-03-11T05:39:54.211Z,978.50
2018-03-11T05:40:54.249Z,978.52
2018-03-11T05:41:54.281Z,978.53
2018-03-11T05:42:54.328Z,978.55
2018-03-11T05:43:54.355Z,978.51
2018-03-11T05:44:54.398Z,978.51
2018-03-11T05:45:54.422Z,978.51
2018-03-11T05:46:54.463Z,978.57
2018-03-11T05:47:54.492Z,978.63
2018-03-11T05:48:54.527Z,978.59
2018-03-11T05:49:54.561Z,978.63
2018-03-11T05:50:54.596Z,978.65
2018-03-11T05:51:54.631Z,978.70
2018-03-11T05:52:54.667Z,978.67
2018-03-11T05:53:54.716Z,978.68
2018-03-11T05:54:54.737Z,978.64
2018-03-11T05:55:54.779Z,978.58
2018-03-11T05:56:54.807Z,978.58
2018-03-11T05:57:54.849Z,978.57
2018-03-11T05:58:54.875Z,978.55
2018-03-11T05:59:54.913Z,978.55
2018-03-11T06:00:54.968Z,978.52
2018-03-11T06:01:54.990Z,978.48
2018-03-11T06:02:55.019Z,978.41
2018-03-11T06:03:55.057Z,978.39
2018-03-11T06:04:55.085Z,978.41
2018-03-11T06:05:55.124Z,978.39
2018-03-11T06:06:55.156Z,978.35
2018-03-11T06:07:55.193Z,978.30
2018-03-11T06:08:55.234Z,978.22
2018-03-11T06:09:55.264Z,978.23
2018-03-11T06:10:55.296Z,978.25
2018-03-11T06:11:55.336Z,978.29
2018-03-11T06:12:55.382Z,978.33
2018-03-11T06:13:55.404Z,978.29
2018-03-11T06:14:55.437Z,978.28
2018-03-11T06:15:55.474Z,978.28
2018-03-11T06:16:55.544Z,978.25
2018-03-11T06:17:55.540Z,978.20
2018-03-11T06:18:55.578Z,978.17
2018-03-11T06:19:55.610Z,978.18
2018-03-11T06:20:55.645Z,978.19
2018-03-11T06:21:55.681Z,978.22
2018-03-11T06:22:55.714Z,978.23
2018-03-11T06:23:55.756Z,978.21
2018-03-11T06:24:55.786Z,978.25
2018-03-11T06:25:55.821Z,978.23
2018-03-11T06:26:55.857Z,978.26
2018-03-11T06:27:55.891Z,978.28
2018-03-11T06:28:55.928Z,978.26
2018-03-11T06:29:55.964Z,978.26
2018-03-11T06:30:55.996Z,978.19
2018-03-11T06:31:56.028Z,978.20
2018-03-11T06:32:56.067Z,978.19
2018-03-11T06:33:56.099Z,978.10
2018-03-11T06:34:56.197Z,978.05
2018-03-11T06:35:56.170Z,978.08
2018-03-11T06:36:56.207Z,978.03
2018-03-11T06:37:56.240Z,978.06
2018-03-11T06:38:56.325Z,978.04
2018-03-11T06:39:56.313Z,978.05
2018-03-11T06:40:56.348Z,978.08
2018-03-11T06:41:56.440Z,978.08
2018-03-11T06:42:56.413Z,978.15
2018-03-11T06:43:56.447Z,978.13
2018-03-11T06:44:56.483Z,978.13
2018-03-11T06:45:56.519Z,978.13
2018-03-11T06:46:56.554Z,978.12
2018-03-11T06:47:56.591Z,978.05
2018-03-11T06:48:56.628Z,978.04
2018-03-11T06:49:56.661Z,978.00
2018-03-11T06:50:56.704Z,977.95
2018-03-11T06:51:56.732Z,977.92
2018-03-11T06:52:56.765Z,977.93
2018-03-11T06:53:56.802Z,977.92
2018-03-11T06:54:56.835Z,977.95
2018-03-11T06:55:56.877Z,977.97
2018-03-11T06:56:56.905Z,977.96
2018-03-11T06:57:56.939Z,977.90
2018-03-11T06:58:56.976Z,977.85
2018-03-11T06:59:57.012Z,977.80
2018-03-11T07:00:57.169Z,977.77
2018-03-11T07:01:57.082Z,977.76
2018-03-11T07:02:57.121Z,977.75
2018-03-11T07:03:57.153Z,977.76
2018-03-11T07:04:57.190Z,977.77
2018-03-11T07:05:57.223Z,977.71
2018-03-11T07:06:57.262Z,977.72
2018-03-11T07:07:57.294Z,977.69
2018-03-11T07:08:57.332Z,977.65
2018-03-11T07:09:57.363Z,977.66
2018-03-11T07:10:57.402Z,977.69
2018-03-11T07:11:57.439Z,977.70
2018-03-11T07:12:57.472Z,977.70
2018-03-11T07:13:57.506Z,977.68
2018-03-11T07:14:57.541Z,977.69
2018-03-11T07:15:57.575Z,977.62
2018-03-11T07:16:57.612Z,977.56
2018-03-11T07:17:57.648Z,977.54
2018-03-11T07:18:57.682Z,977.53
2018-03-11T07:19:57.718Z,977.51
2018-03-11T07:20:57.782Z,977.50
2018-03-11T07:21:57.792Z,977.52
2018-03-11T07:22:57.835Z,977.49
2018-03-11T07:23:57.872Z,977.49
2018-03-11T07:24:57.896Z,977.49
2018-03-11T07:25:57.934Z,977.49
2018-03-11T07:26:58.022Z,977.43
2018-03-11T07:27:58.004Z,977.45
2018-03-11T07:28:58.039Z,977.43
2018-03-11T07:29:58.074Z,977.46
2018-03-11T07:30:58.115Z,977.48
2018-03-11T07:31:58.154Z,977.48
2018-03-11T07:32:58.213Z,977.52
2018-03-11T07:33:58.223Z,977.54
2018-03-11T07:34:58.255Z,977.52
2018-03-11T07:35:58.345Z,977.52
2018-03-11T07:36:58.331Z,977.47
2018-03-11T07:37:58.372Z,977.44
2018-03-11T07:38:58.509Z,977.42
2018-03-11T07:39:58.441Z,977.47
2018-03-11T07:40:58.485Z,977.48
2018-03-11T07:41:58.508Z,977.46
2018-03-11T07:42:58.552Z,977.47
2018-03-11T07:43:58.581Z,977.44
2018-03-11T07:44:58.618Z,977.41
2018-03-11T07:45:58.712Z,977.40
2018-03-11T07:46:58.691Z,977.38
2018-03-11T07:47:58.728Z,977.36
2018-03-11T07:48:58.767Z,977.35
2018-03-11T07:49:58.799Z,977.32
2018-03-11T07:50:58.836Z,977.37
2018-03-11T07:51:58.876Z,977.30
2018-03-11T07:52:58.933Z,977.32
2018-03-11T07:53:58.948Z,977.27
2018-03-11T07:54:58.997Z,977.24
2018-03-11T07:55:59.022Z,977.25
2018-03-11T07:56:59.074Z,977.21
2018-03-11T07:57:59.092Z,977.15
2018-03-11T07:58:59.136Z,977.12
2018-03-11T07:59:59.169Z,977.14
2018-03-11T08:00:59.209Z,977.12
2018-03-11T08:01:59.241Z,977.11
2018-03-11T08:02:59.278Z,977.17
2018-03-11T08:03:59.320Z,977.19
2018-03-11T08:04:59.355Z,977.18
2018-03-11T08:05:59.390Z,977.24
2018-03-11T08:06:59.427Z,977.27
2018-03-11T08:07:59.466Z,977.29
2018-03-11T08:08:59.500Z,977.35
2018-03-11T08:09:59.541Z,977.34
2018-03-11T08:10:59.575Z,977.34
2018-03-11T08:11:59.625Z,977.35
2018-03-11T08:12:59.649Z,977.37
2018-03-11T08:13:59.688Z,977.39
2018-03-11T08:14:59.719Z,977.47
2018-03-11T08:15:59.760Z,977.47
2018-03-11T08:16:59.795Z,977.48
2018-03-11T08:17:59.840Z,977.51
2018-03-11T08:18:59.918Z,977.55
2018-03-11T08:19:59.906Z,977.57
2018-03-11T08:20:59.950Z,977.58
2018-03-11T08:21:59.980Z,977.61
2018-03-11T08:23:00.019Z,977.62
2018-03-11T08:24:00.057Z,977.64
2018-03-11T08:25:00.092Z,977.67
2018-03-11T08:26:00.236Z,977.67
2018-03-11T08:27:00.174Z,977.69
2018-03-11T08:28:00.205Z,977.68
2018-03-11T08:29:00.252Z,977.70
2018-03-11T08:30:00.276Z,977.70
2018-03-11T08:31:00.315Z,977.70
2018-03-11T08:32:00.353Z,977.75
2018-03-11T08:33:00.401Z,977.76
2018-03-11T08:34:00.427Z,977.76
2018-03-11T08:35:00.478Z,977.77
2018-03-11T08:36:00.503Z,977.78
2018-03-11T08:37:00.542Z,977.77
2018-03-11T08:38:00.578Z,977.73
2018-03-11T08:39:00.624Z,977.70
2018-03-11T08:40:00.666Z,977.69
2018-03-11T08:41:00.693Z,977.70
2018-03-11T08:42:00.728Z,977.69
2018-03-11T08:43:00.770Z,977.71
2018-03-11T08:44:00.809Z,977.71
2018-03-11T08:45:00.852Z,977.71
2018-03-11T08:46:00.880Z,977.69
2018-03-11T08:47:00.920Z,977.66
2018-03-11T08:48:00.963Z,977.66
2018-03-11T08:49:01.000Z,977.64
2018-03-11T08:50:01.035Z,977.68
2018-03-11T08:51:01.070Z,977.67
2018-03-11T08:52:01.118Z,977.68
2018-03-11T08:53:01.149Z,977.69
2018-03-11T08:54:01.192Z,977.72
2018-03-11T08:55:01.225Z,977.71
2018-03-11T08:56:01.261Z,977.79
2018-03-11T08:57:01.313Z,977.81
2018-03-11T08:58:01.334Z,977.86
2018-03-11T08:59:01.451Z,977.90
2018-03-11T09:00:01.417Z,977.91
2018-03-11T09:01:01.453Z,977.93
2018-03-11T09:02:01.490Z,977.91
2018-03-11T09:03:01.562Z,977.87
2018-03-11T09:04:01.570Z,977.88
2018-03-11T09:05:01.646Z,977.88
2018-03-11T09:06:01.653Z,977.87
2018-03-11T09:07:01.681Z,977.88
2018-03-11T09:08:01.719Z,977.86
2018-03-11T09:09:01.764Z,977.87
2018-03-11T09:10:01.799Z,977.87
2018-03-11T09:11:01.849Z,977.86
2018-03-11T09:12:01.877Z,977.89
2018-03-11T09:13:02.053Z,977.88
2018-03-11T09:14:01.953Z,977.85
2018-03-11T09:15:01.993Z,977.87
2018-03-11T09:16:02.033Z,977.86
2018-03-11T09:17:02.074Z,977.84
2018-03-11T09:18:02.112Z,977.82
2018-03-11T09:19:02.161Z,977.80
2018-03-11T09:20:02.218Z,977.79
2018-03-11T09:21:02.251Z,977.78
2018-03-11T09:22:02.264Z,977.80
2018-03-11T09:23:02.316Z,977.81
2018-03-11T09:24:02.345Z,977.81
2018-03-11T09:25:02.396Z,977.75
2018-03-11T09:26:02.433Z,977.66
2018-03-11T09:27:02.464Z,977.59
2018-03-11T09:28:02.502Z,977.48
2018-03-11T09:29:02.545Z,977.42
2018-03-11T09:30:02.620Z,977.36
2018-03-11T09:31:02.621Z,977.30
2018-03-11T09:32:02.661Z,977.26
2018-03-11T09:33:02.699Z,977.24
2018-03-11T09:34:02.741Z,977.23
2018-03-11T09:35:02.786Z,977.20
2018-03-11T09:36:02.821Z,977.18
2018-03-11T09:37:02.857Z,977.17
2018-03-11T09:38:02.896Z,977.18
2018-03-11T09:39:02.937Z,977.16
2018-03-11T09:40:02.975Z,977.13
2018-03-11T09:41:03.017Z,977.10
2018-03-11T09:42:03.052Z,977.07
2018-03-11T09:43:03.093Z,977.04
2018-03-11T09:44:03.134Z,977.09
2018-03-11T09:45:03.180Z,977.05
2018-03-11T09:46:03.215Z,977.02
2018-03-11T09:47:03.254Z,977.01
2018-03-11T09:48:03.287Z,976.99
2018-03-11T09:49:03.331Z,976.94
2018-03-11T09:50:03.370Z,976.92
2018-03-11T09:51:03.405Z,976.90
2018-03-11T09:52:03.444Z,976.85
2018-03-11T09:53:03.605Z,976.83
2018-03-11T09:54:03.523Z,976.81
2018-03-11T09:55:03.559Z,976.77
2018-03-11T09:56:03.599Z,976.77
2018-03-11T09:57:03.644Z,976.75
2018-03-11T09:58:03.679Z,976.76
2018-03-11T09:59:03.725Z,976.76
2018-03-11T10:00:03.767Z,976.76
2018-03-11T10:01:03.796Z,976.73
2018-03-11T10:02:03.842Z,976.72
2018-03-11T10:03:03.968Z,976.72
2018-03-11T10:04:03.916Z,976.71
2018-03-11T10:05:03.951Z,976.74
2018-03-11T10:06:03.986Z,976.76
2018-03-11T10:07:04.044Z,976.78
2018-03-11T10:08:04.066Z,976.76
2018-03-11T10:09:04.104Z,976.71
2018-03-11T10:10:04.140Z,976.73
2018-03-11T10:11:04.182Z,976.67
2018-03-11T10:12:04.220Z,976.67
2018-03-11T10:13:04.262Z,976.64
2018-03-11T10:14:04.323Z,976.61
2018-03-11T10:15:04.338Z,976.63
2018-03-11T10:16:04.379Z,976.60
2018-03-11T10:17:04.419Z,976.60
2018-03-11T10:18:04.451Z,976.57
2018-03-11T10:19:04.490Z,976.61
2018-03-11T10:20:04.531Z,976.54
2018-03-11T10:21:04.577Z,976.53
2018-03-11T10:22:04.607Z,976.57
2018-03-11T10:23:04.647Z,976.52
2018-03-11T10:24:04.696Z,976.51
2018-03-11T10:25:04.722Z,976.48
2018-03-11T10:26:04.760Z,976.45
2018-03-11T10:27:04.801Z,976.42
2018-03-11T10:28:04.843Z,976.46
2018-03-11T10:29:04.880Z,976.45
2018-03-11T10:30:04.927Z,976.48
2018-03-11T10:31:04.970Z,976.52
2018-03-11T10:32:05.000Z,976.47
2018-03-11T10:33:05.033Z,976.50
2018-03-11T10:34:05.075Z,976.50
2018-03-11T10:35:05.113Z,976.47
2018-03-11T10:36:05.153Z,976.49
2018-03-11T10:37:05.195Z,976.49
2018-03-11T10:38:05.247Z,976.51
2018-03-11T10:39:05.273Z,976.52
2018-03-11T10:40:05.329Z,976.52
2018-03-11T10:41:05.352Z,976.53
2018-03-11T10:42:05.386Z,976.54
2018-03-11T10:43:05.440Z,976.56
2018-03-11T10:44:05.463Z,976.58
2018-03-11T10:45:05.503Z,976.57
2018-03-11T10:46:05.544Z,976.57
2018-03-11T10:47:05.596Z,976.53
2018-03-11T10:48:05.858Z,976.58
2018-03-11T10:49:05.674Z,976.53
2018-03-11T10:50:05.703Z,976.53
2018-03-11T10:51:05.749Z,976.50
2018-03-11T10:52:05.783Z,976.53
2018-03-11T10:53:05.817Z,976.53
2018-03-11T10:54:05.857Z,976.58
2018-03-11T10:55:05.897Z,976.57
2018-03-11T10:56:05.937Z,976.57
2018-03-11T10:57:05.978Z,976.59
2018-03-11T10:58:06.015Z,976.59
2018-03-11T10:59:06.056Z,976.54
2018-03-11T11:00:06.104Z,976.53
2018-03-11T11:01:06.135Z,976.55
2018-03-11T11:02:06.185Z,976.52
2018-03-11T11:03:06.218Z,976.47
2018-03-11T11:04:06.259Z,976.45
2018-03-11T11:05:06.295Z,976.46
2018-03-11T11:06:06.336Z,976.47
2018-03-11T11:07:06.376Z,976.49
2018-03-11T11:08:06.424Z,976.48
2018-03-11T11:09:06.459Z,976.53
2018-03-11T11:10:06.497Z,976.54
2018-03-11T11:11:06.548Z,976.59
2018-03-11T11:12:06.579Z,976.55
2018-03-11T11:13:06.621Z,976.58
2018-03-11T11:14:06.666Z,976.55
2018-03-11T11:15:06.705Z,976.55
2018-03-11T11:16:06.747Z,976.51
2018-03-11T11:17:06.797Z,976.50
2018-03-11T11:18:06.829Z,976.53
2018-03-11T11:19:06.921Z,976.49
2018-03-11T11:20:06.932Z,976.52
2018-03-11T11:21:06.966Z,976.52
2018-03-11T11:22:06.995Z,976.49
2018-03-11T11:23:07.035Z,976.55
2018-03-11T11:24:07.091Z,976.57
2018-03-11T11:25:07.116Z,976.54
2018-03-11T11:26:07.156Z,976.52
2018-03-11T11:27:07.213Z,976.48
2018-03-11T11:28:07.267Z,976.48
2018-03-11T11:29:07.292Z,976.50
2018-03-11T11:30:07.328Z,976.45
2018-03-11T11:31:07.367Z,976.45
2018-03-11T11:32:07.410Z,976.42
2018-03-11T11:33:07.452Z,976.38
2018-03-11T11:34:07.546Z,976.34
2018-03-11T11:35:07.536Z,976.32
2018-03-11T11:36:07.583Z,976.25
2018-03-11T11:37:07.620Z,976.21
2018-03-11T11:38:07.662Z,976.18
2018-03-11T11:39:07.842Z,976.20
2018-03-11T11:40:07.749Z,976.16
2018-03-11T11:41:07.794Z,976.15
2018-03-11T11:42:07.831Z,976.09
2018-03-11T11:43:07.873Z,976.10
2018-03-11T11:44:07.919Z,976.06
2018-03-11T11:45:07.959Z,976.03
2018-03-11T11:46:08.029Z,976.05
2018-03-11T11:47:08.047Z,976.00
2018-03-11T11:48:08.098Z,975.95
2018-03-11T11:49:08.125Z,975.98
2018-03-11T11:50:08.168Z,975.97
2018-03-11T11:51:08.211Z,975.95
2018-03-11T11:52:08.251Z,976.01
2018-03-11T11:53:08.295Z,975.91
2018-03-11T11:54:08.334Z,975.88
2018-03-11T11:55:08.536Z,975.88
2018-03-11T11:56:08.431Z,975.87
2018-03-11T11:57:08.461Z,975.89
2018-03-11T11:58:08.530Z,975.92
2018-03-11T11:59:08.543Z,975.90
2018-03-11T12:00:08.592Z,975.85
2018-03-11T12:01:08.657Z,975.87
2018-03-11T12:02:08.793Z,975.81
2018-03-11T12:03:08.712Z,975.84
2018-03-11T12:04:08.764Z,975.85
2018-03-11T12:05:08.803Z,975.90
2018-03-11T12:06:08.836Z,975.84
2018-03-11T12:07:08.885Z,975.81
2018-03-11T12:08:08.926Z,975.78
2018-03-11T12:09:08.965Z,975.80
2018-03-11T12:10:09.007Z,975.81
2018-03-11T12:11:09.048Z,975.79
2018-03-11T12:12:09.146Z,975.77
2018-03-11T12:13:09.134Z,975.80
2018-03-11T12:14:09.285Z,975.82
2018-03-11T12:15:09.216Z,975.82
2018-03-11T12:16:09.255Z,975.83
2018-03-11T12:17:09.301Z,975.78
2018-03-11T12:18:09.341Z,975.76
2018-03-11T12:19:09.383Z,975.81
2018-03-11T12:20:09.424Z,975.74
2018-03-11T12:21:09.470Z,975.71
2018-03-11T12:22:09.505Z,975.65
2018-03-11T12:23:09.549Z,975.58
2018-03-11T12:24:09.594Z,975.57
2018-03-11T12:25:09.678Z,975.53
2018-03-11T12:26:09.678Z,975.57
2018-03-11T12:27:09.719Z,975.58
2018-03-11T12:28:09.766Z,975.59
2018-03-11T12:29:09.806Z,975.56